sensor_id;sensor_type;location;lat;lon;timestamp;P1;durP1;ratioP1;P2;durP2;ratioP2
19800;SDS011;10060;48.274;12.214;2022-09-09T00:01:47;4.22;;;2.85;;
19800;SDS011;10060;48.274;12.214;2022-09-09T00:04:57;3.55;;;2.78;;
19800;SDS011;10060;48.274;12.214;2022-09-09T00:08:02;3.65;;;2.90;;
19800;SDS011;10060;48.274;12.214;2022-09-09T00:11:05;2.95;;;2.60;;
19800;SDS011;10060;48.274;12.214;2022-09-09T00:14:08;6.05;;;2.40;;
19800;SDS011;10060;48.274;12.214;2022-09-09T00:17:16;2.90;;;2.60;;
19800;SDS011;10060;48.274;12.214;2022-09-09T00:20:23;3.10;;;2.80;;
19800;SDS011;10060;48.274;12.214;2022-09-09T00:23:28;3.67;;;2.70;;
19800;SDS011;10060;48.274;12.214;2022-09-09T00:26:32;3.00;;;2.60;;
19800;SDS011;10060;48.274;12.214;2022-09-09T00:29:39;3.40;;;2.70;;
19800;SDS011;10060;48.274;12.214;2022-09-09T00:32:44;3.33;;;2.38;;
19800;SDS011;10060;48.274;12.214;2022-09-09T00:35:48;4.05;;;2.60;;
19800;SDS011;10060;48.274;12.214;2022-09-09T00:38:51;3.72;;;2.70;;
19800;SDS011;10060;48.274;12.214;2022-09-09T00:41:57;5.80;;;2.72;;
19800;SDS011;10060;48.274;12.214;2022-09-09T00:45:07;3.88;;;2.40;;
19800;SDS011;10060;48.274;12.214;2022-09-09T00:48:12;2.42;;;2.22;;
19800;SDS011;10060;48.274;12.214;2022-09-09T00:51:20;3.97;;;2.15;;
19800;SDS011;10060;48.274;12.214;2022-09-09T00:54:28;3.45;;;2.45;;
19800;SDS011;10060;48.274;12.214;2022-09-09T00:57:34;3.03;;;2.60;;
19800;SDS011;10060;48.274;12.214;2022-09-09T01:00:39;2.45;;;2.25;;
19800;SDS011;10060;48.274;12.214;2022-09-09T01:03:43;2.85;;;2.65;;
19800;SDS011;10060;48.274;12.214;2022-09-09T01:06:52;5.00;;;2.70;;
19800;SDS011;10060;48.274;12.214;2022-09-09T01:09:59;3.63;;;2.90;;
19800;SDS011;10060;48.274;12.214;2022-09-09T01:13:02;3.93;;;2.70;;
19800;SDS011;10060;48.274;12.214;2022-09-09T01:16:07;4.45;;;2.40;;
19800;SDS011;10060;48.274;12.214;2022-09-09T01:19:13;3.80;;;3.10;;
19800;SDS011;10060;48.274;12.214;2022-09-09T01:22:22;2.45;;;2.20;;
19800;SDS011;10060;48.274;12.214;2022-09-09T01:25:30;2.60;;;2.00;;
19800;SDS011;10060;48.274;12.214;2022-09-09T01:28:34;4.53;;;2.50;;
19800;SDS011;10060;48.274;12.214;2022-09-09T01:31:38;2.40;;;2.20;;
19800;SDS011;10060;48.274;12.214;2022-09-09T01:34:41;4.85;;;2.53;;
19800;SDS011;10060;48.274;12.214;2022-09-09T01:37:44;3.53;;;2.80;;
19800;SDS011;10060;48.274;12.214;2022-09-09T01:40:46;3.07;;;2.40;;
19800;SDS011;10060;48.274;12.214;2022-09-09T01:43:49;5.18;;;2.45;;
19800;SDS011;10060;48.274;12.214;2022-09-09T01:46:51;3.67;;;2.43;;
19800;SDS011;10060;48.274;12.214;2022-09-09T01:49:53;5.80;;;2.13;;
19800;SDS011;10060;48.274;12.214;2022-09-09T01:52:56;3.23;;;2.30;;
19800;SDS011;10060;48.274;12.214;2022-09-09T01:56:02;6.45;;;2.88;;
19800;SDS011;10060;48.274;12.214;2022-09-09T01:59:14;2.53;;;2.30;;
19800;SDS011;10060;48.274;12.214;2022-09-09T02:02:22;4.33;;;2.53;;
19800;SDS011;10060;48.274;12.214;2022-09-09T02:05:28;4.97;;;2.30;;
19800;SDS011;10060;48.274;12.214;2022-09-09T02:08:33;4.77;;;2.40;;
19800;SDS011;10060;48.274;12.214;2022-09-09T02:11:38;4.87;;;2.53;;
19800;SDS011;10060;48.274;12.214;2022-09-09T02:14:42;2.43;;;2.23;;
19800;SDS011;10060;48.274;12.214;2022-09-09T02:17:47;3.07;;;2.40;;
19800;SDS011;10060;48.274;12.214;2022-09-09T02:20:51;4.90;;;2.30;;
19800;SDS011;10060;48.274;12.214;2022-09-09T02:23:53;3.20;;;2.50;;
19800;SDS011;10060;48.274;12.214;2022-09-09T02:26:57;5.18;;;2.42;;
19800;SDS011;10060;48.274;12.214;2022-09-09T02:30:02;3.23;;;2.60;;
19800;SDS011;10060;48.274;12.214;2022-09-09T02:33:05;3.57;;;2.70;;
19800;SDS011;10060;48.274;12.214;2022-09-09T02:36:09;4.73;;;2.70;;
19800;SDS011;10060;48.274;12.214;2022-09-09T02:39:12;3.77;;;2.70;;
19800;SDS011;10060;48.274;12.214;2022-09-09T02:42:15;4.28;;;2.78;;
19800;SDS011;10060;48.274;12.214;2022-09-09T02:45:19;3.88;;;3.00;;
19800;SDS011;10060;48.274;12.214;2022-09-09T02:48:23;2.55;;;2.35;;
19800;SDS011;10060;48.274;12.214;2022-09-09T02:51:28;4.97;;;2.23;;
19800;SDS011;10060;48.274;12.214;2022-09-09T02:54:34;4.65;;;3.03;;
19800;SDS011;10060;48.274;12.214;2022-09-09T02:57:37;7.97;;;3.47;;
19800;SDS011;10060;48.274;12.214;2022-09-09T03:00:41;3.67;;;2.60;;
19800;SDS011;10060;48.274;12.214;2022-09-09T03:03:45;3.27;;;2.63;;
19800;SDS011;10060;48.274;12.214;2022-09-09T03:06:47;3.00;;;2.70;;
19800;SDS011;10060;48.274;12.214;2022-09-09T03:09:49;3.20;;;2.30;;
19800;SDS011;10060;48.274;12.214;2022-09-09T03:12:52;5.17;;;3.07;;
19800;SDS011;10060;48.274;12.214;2022-09-09T03:15:56;3.90;;;2.88;;
19800;SDS011;10060;48.274;12.214;2022-09-09T03:18:58;2.40;;;2.20;;
19800;SDS011;10060;48.274;12.214;2022-09-09T03:22:00;3.50;;;2.73;;
19800;SDS011;10060;48.274;12.214;2022-09-09T03:25:04;3.30;;;2.63;;
19800;SDS011;10060;48.274;12.214;2022-09-09T03:28:06;6.07;;;2.67;;
19800;SDS011;10060;48.274;12.214;2022-09-09T03:31:10;5.60;;;2.97;;
19800;SDS011;10060;48.274;12.214;2022-09-09T03:34:12;2.67;;;2.30;;
19800;SDS011;10060;48.274;12.214;2022-09-09T03:37:15;4.32;;;2.53;;
19800;SDS011;10060;48.274;12.214;2022-09-09T03:40:17;2.47;;;2.20;;
19800;SDS011;10060;48.274;12.214;2022-09-09T03:43:20;3.33;;;2.50;;
19800;SDS011;10060;48.274;12.214;2022-09-09T03:46:24;3.43;;;2.57;;
19800;SDS011;10060;48.274;12.214;2022-09-09T03:49:26;3.67;;;2.53;;
19800;SDS011;10060;48.274;12.214;2022-09-09T03:52:29;2.50;;;2.30;;
19800;SDS011;10060;48.274;12.214;2022-09-09T03:55:31;4.33;;;2.37;;
19800;SDS011;10060;48.274;12.214;2022-09-09T03:58:33;8.33;;;2.30;;
19800;SDS011;10060;48.274;12.214;2022-09-09T04:01:37;4.43;;;2.73;;
19800;SDS011;10060;48.274;12.214;2022-09-09T04:04:40;3.40;;;2.20;;
19800;SDS011;10060;48.274;12.214;2022-09-09T04:07:42;3.07;;;2.37;;
19800;SDS011;10060;48.274;12.214;2022-09-09T04:10:44;4.93;;;2.10;;
19800;SDS011;10060;48.274;12.214;2022-09-09T04:13:47;2.53;;;2.23;;
19800;SDS011;10060;48.274;12.214;2022-09-09T04:16:50;2.70;;;2.50;;
19800;SDS011;10060;48.274;12.214;2022-09-09T04:19:52;3.78;;;2.30;;
19800;SDS011;10060;48.274;12.214;2022-09-09T04:22:54;2.78;;;2.50;;
19800;SDS011;10060;48.274;12.214;2022-09-09T04:25:57;6.10;;;2.60;;
19800;SDS011;10060;48.274;12.214;2022-09-09T04:29:00;3.53;;;2.50;;
19800;SDS011;10060;48.274;12.214;2022-09-09T04:32:03;5.73;;;2.17;;
19800;SDS011;10060;48.274;12.214;2022-09-09T04:35:06;4.53;;;2.65;;
19800;SDS011;10060;48.274;12.214;2022-09-09T04:38:08;5.53;;;3.08;;
19800;SDS011;10060;48.274;12.214;2022-09-09T04:41:10;3.28;;;2.28;;
19800;SDS011;10060;48.274;12.214;2022-09-09T04:44:13;3.83;;;1.98;;
19800;SDS011;10060;48.274;12.214;2022-09-09T04:47:17;3.90;;;2.03;;
19800;SDS011;10060;48.274;12.214;2022-09-09T04:50:19;3.67;;;2.22;;
19800;SDS011;10060;48.274;12.214;2022-09-09T04:53:21;3.55;;;2.13;;
19800;SDS011;10060;48.274;12.214;2022-09-09T04:56:24;3.80;;;2.10;;
19800;SDS011;10060;48.274;12.214;2022-09-09T04:59:28;4.45;;;2.33;;
19800;SDS011;10060;48.274;12.214;2022-09-09T05:02:31;4.43;;;2.50;;
19800;SDS011;10060;48.274;12.214;2022-09-09T05:05:33;6.00;;;2.83;;
19800;SDS011;10060;48.274;12.214;2022-09-09T05:08:36;7.17;;;2.57;;
19800;SDS011;10060;48.274;12.214;2022-09-09T05:11:38;6.47;;;2.75;;
19800;SDS011;10060;48.274;12.214;2022-09-09T05:14:40;3.07;;;2.50;;
19800;SDS011;10060;48.274;12.214;2022-09-09T05:17:43;3.10;;;2.17;;
19800;SDS011;10060;48.274;12.214;2022-09-09T05:20:45;3.35;;;2.20;;
19800;SDS011;10060;48.274;12.214;2022-09-09T05:23:48;6.53;;;2.60;;
19800;SDS011;10060;48.274;12.214;2022-09-09T05:26:50;7.43;;;2.90;;
19800;SDS011;10060;48.274;12.214;2022-09-09T05:29:52;4.57;;;2.53;;
19800;SDS011;10060;48.274;12.214;2022-09-09T05:32:56;3.83;;;2.60;;
19800;SDS011;10060;48.274;12.214;2022-09-09T05:35:59;3.03;;;2.10;;
19800;SDS011;10060;48.274;12.214;2022-09-09T05:39:02;4.73;;;2.30;;
19800;SDS011;10060;48.274;12.214;2022-09-09T05:42:05;3.20;;;2.47;;
19800;SDS011;10060;48.274;12.214;2022-09-09T05:45:07;4.97;;;2.42;;
19800;SDS011;10060;48.274;12.214;2022-09-09T05:48:11;2.65;;;2.08;;
19800;SDS011;10060;48.274;12.214;2022-09-09T05:51:14;4.32;;;2.60;;
19800;SDS011;10060;48.274;12.214;2022-09-09T05:54:17;4.95;;;2.25;;
19800;SDS011;10060;48.274;12.214;2022-09-09T05:57:19;3.80;;;2.30;;
19800;SDS011;10060;48.274;12.214;2022-09-09T06:00:21;3.47;;;3.17;;
19800;SDS011;10060;48.274;12.214;2022-09-09T06:03:25;4.72;;;3.20;;
19800;SDS011;10060;48.274;12.214;2022-09-09T06:06:27;4.45;;;3.25;;
19800;SDS011;10060;48.274;12.214;2022-09-09T06:09:31;3.03;;;2.60;;
19800;SDS011;10060;48.274;12.214;2022-09-09T06:12:34;3.10;;;2.50;;
19800;SDS011;10060;48.274;12.214;2022-09-09T06:15:36;2.85;;;2.55;;
19800;SDS011;10060;48.274;12.214;2022-09-09T06:18:39;8.00;;;3.10;;
19800;SDS011;10060;48.274;12.214;2022-09-09T06:21:42;4.45;;;2.75;;
19800;SDS011;10060;48.274;12.214;2022-09-09T06:24:44;3.97;;;2.97;;
19800;SDS011;10060;48.274;12.214;2022-09-09T06:27:48;5.97;;;2.88;;
19800;SDS011;10060;48.274;12.214;2022-09-09T06:30:56;5.82;;;3.42;;
19800;SDS011;10060;48.274;12.214;2022-09-09T06:34:00;5.95;;;3.65;;
19800;SDS011;10060;48.274;12.214;2022-09-09T06:37:02;8.38;;;3.50;;
19800;SDS011;10060;48.274;12.214;2022-09-09T06:40:06;9.45;;;3.95;;
19800;SDS011;10060;48.274;12.214;2022-09-09T06:43:09;6.78;;;3.63;;
19800;SDS011;10060;48.274;12.214;2022-09-09T06:46:11;8.35;;;3.83;;
19800;SDS011;10060;48.274;12.214;2022-09-09T06:49:15;6.03;;;3.83;;
19800;SDS011;10060;48.274;12.214;2022-09-09T06:52:17;9.15;;;4.10;;
19800;SDS011;10060;48.274;12.214;2022-09-09T06:55:19;7.65;;;3.80;;
19800;SDS011;10060;48.274;12.214;2022-09-09T06:58:21;8.85;;;3.90;;
19800;SDS011;10060;48.274;12.214;2022-09-09T07:01:24;5.57;;;4.20;;
19800;SDS011;10060;48.274;12.214;2022-09-09T07:04:28;8.63;;;4.72;;
19800;SDS011;10060;48.274;12.214;2022-09-09T07:07:30;7.73;;;4.17;;
19800;SDS011;10060;48.274;12.214;2022-09-09T07:10:32;6.60;;;3.90;;
19800;SDS011;10060;48.274;12.214;2022-09-09T07:13:34;6.22;;;3.90;;
19800;SDS011;10060;48.274;12.214;2022-09-09T07:16:37;7.22;;;4.53;;
19800;SDS011;10060;48.274;12.214;2022-09-09T07:19:40;8.25;;;4.88;;
19800;SDS011;10060;48.274;12.214;2022-09-09T07:22:43;7.07;;;5.17;;
19800;SDS011;10060;48.274;12.214;2022-09-09T07:25:45;10.15;;;4.88;;
19800;SDS011;10060;48.274;12.214;2022-09-09T07:28:47;5.78;;;4.38;;
19800;SDS011;10060;48.274;12.214;2022-09-09T07:31:50;8.93;;;4.55;;
19800;SDS011;10060;48.274;12.214;2022-09-09T07:34:53;7.63;;;4.47;;
19800;SDS011;10060;48.274;12.214;2022-09-09T07:37:56;5.07;;;4.40;;
19800;SDS011;10060;48.274;12.214;2022-09-09T07:41:02;6.65;;;4.70;;
19800;SDS011;10060;48.274;12.214;2022-09-09T07:44:05;9.20;;;3.97;;
19800;SDS011;10060;48.274;12.214;2022-09-09T07:47:07;4.43;;;3.50;;
19800;SDS011;10060;48.274;12.214;2022-09-09T07:50:11;6.57;;;3.33;;
19800;SDS011;10060;48.274;12.214;2022-09-09T07:53:13;3.75;;;3.05;;
19800;SDS011;10060;48.274;12.214;2022-09-09T07:56:16;5.20;;;3.45;;
19800;SDS011;10060;48.274;12.214;2022-09-09T07:59:18;9.43;;;3.80;;
19800;SDS011;10060;48.274;12.214;2022-09-09T08:02:20;4.18;;;3.78;;
19800;SDS011;10060;48.274;12.214;2022-09-09T08:05:24;4.80;;;4.22;;
19800;SDS011;10060;48.274;12.214;2022-09-09T08:08:26;13.10;;;4.88;;
19800;SDS011;10060;48.274;12.214;2022-09-09T08:11:29;5.03;;;3.22;;
19800;SDS011;10060;48.274;12.214;2022-09-09T08:14:33;10.68;;;4.25;;
19800;SDS011;10060;48.274;12.214;2022-09-09T08:17:35;3.35;;;2.28;;
19800;SDS011;10060;48.274;12.214;2022-09-09T08:20:39;5.93;;;2.55;;
19800;SDS011;10060;48.274;12.214;2022-09-09T08:23:42;4.85;;;2.35;;
19800;SDS011;10060;48.274;12.214;2022-09-09T08:26:46;4.10;;;2.30;;
19800;SDS011;10060;48.274;12.214;2022-09-09T08:29:49;2.10;;;1.90;;
19800;SDS011;10060;48.274;12.214;2022-09-09T08:32:51;3.05;;;2.47;;
19800;SDS011;10060;48.274;12.214;2022-09-09T08:35:55;5.53;;;3.47;;
19800;SDS011;10060;48.274;12.214;2022-09-09T08:38:57;4.40;;;2.80;;
19800;SDS011;10060;48.274;12.214;2022-09-09T08:42:03;2.75;;;2.50;;
19800;SDS011;10060;48.274;12.214;2022-09-09T08:45:12;5.60;;;2.60;;
19800;SDS011;10060;48.274;12.214;2022-09-09T08:48:20;3.65;;;2.60;;
19800;SDS011;10060;48.274;12.214;2022-09-09T08:51:27;4.72;;;2.60;;
19800;SDS011;10060;48.274;12.214;2022-09-09T08:54:31;4.03;;;2.38;;
19800;SDS011;10060;48.274;12.214;2022-09-09T08:57:36;4.30;;;2.83;;
19800;SDS011;10060;48.274;12.214;2022-09-09T09:00:40;4.15;;;2.67;;
19800;SDS011;10060;48.274;12.214;2022-09-09T09:03:47;5.95;;;3.13;;
19800;SDS011;10060;48.274;12.214;2022-09-09T09:06:54;4.15;;;2.78;;
19800;SDS011;10060;48.274;12.214;2022-09-09T09:10:00;3.70;;;2.90;;
19800;SDS011;10060;48.274;12.214;2022-09-09T09:13:06;5.95;;;2.63;;
19800;SDS011;10060;48.274;12.214;2022-09-09T09:16:13;4.05;;;2.60;;
19800;SDS011;10060;48.274;12.214;2022-09-09T09:19:16;4.10;;;3.25;;
19800;SDS011;10060;48.274;12.214;2022-09-09T09:22:25;4.45;;;2.90;;
19800;SDS011;10060;48.274;12.214;2022-09-09T09:25:31;6.30;;;3.03;;
19800;SDS011;10060;48.274;12.214;2022-09-09T09:28:36;5.88;;;3.05;;
19800;SDS011;10060;48.274;12.214;2022-09-09T09:31:39;5.47;;;2.90;;
19800;SDS011;10060;48.274;12.214;2022-09-09T09:34:48;3.75;;;2.90;;
19800;SDS011;10060;48.274;12.214;2022-09-09T09:37:51;3.65;;;2.92;;
19800;SDS011;10060;48.274;12.214;2022-09-09T09:40:55;3.10;;;2.60;;
19800;SDS011;10060;48.274;12.214;2022-09-09T09:43:57;4.90;;;3.17;;
19800;SDS011;10060;48.274;12.214;2022-09-09T09:47:05;5.18;;;3.08;;
19800;SDS011;10060;48.274;12.214;2022-09-09T09:50:15;3.78;;;2.80;;
19800;SDS011;10060;48.274;12.214;2022-09-09T09:53:23;5.60;;;2.97;;
19800;SDS011;10060;48.274;12.214;2022-09-09T09:56:27;4.40;;;2.78;;
19800;SDS011;10060;48.274;12.214;2022-09-09T09:59:33;3.00;;;2.70;;
19800;SDS011;10060;48.274;12.214;2022-09-09T10:02:37;4.35;;;2.97;;
19800;SDS011;10060;48.274;12.214;2022-09-09T10:05:44;4.47;;;2.60;;
19800;SDS011;10060;48.274;12.214;2022-09-09T10:08:48;2.78;;;2.25;;
19800;SDS011;10060;48.274;12.214;2022-09-09T10:11:55;3.72;;;2.58;;
19800;SDS011;10060;48.274;12.214;2022-09-09T10:15:01;2.85;;;2.13;;
19800;SDS011;10060;48.274;12.214;2022-09-09T10:18:12;3.40;;;2.40;;
19800;SDS011;10060;48.274;12.214;2022-09-09T10:21:27;6.32;;;2.60;;
19800;SDS011;10060;48.274;12.214;2022-09-09T10:24:39;5.22;;;3.00;;
19800;SDS011;10060;48.274;12.214;2022-09-09T10:27:47;3.92;;;2.70;;
19800;SDS011;10060;48.274;12.214;2022-09-09T10:30:52;4.32;;;3.05;;
19800;SDS011;10060;48.274;12.214;2022-09-09T10:33:57;5.28;;;3.65;;
19800;SDS011;10060;48.274;12.214;2022-09-09T10:37:03;5.75;;;3.05;;
19800;SDS011;10060;48.274;12.214;2022-09-09T10:43:36;9.60;;;3.00;;
19800;SDS011;10060;48.274;12.214;2022-09-09T10:46:45;9.25;;;3.70;;
19800;SDS011;10060;48.274;12.214;2022-09-09T10:50:00;6.50;;;3.65;;
19800;SDS011;10060;48.274;12.214;2022-09-09T10:53:08;4.28;;;3.78;;
19800;SDS011;10060;48.274;12.214;2022-09-09T10:56:15;6.18;;;4.00;;
19800;SDS011;10060;48.274;12.214;2022-09-09T10:59:20;6.00;;;3.70;;
19800;SDS011;10060;48.274;12.214;2022-09-09T11:02:26;3.72;;;2.92;;
19800;SDS011;10060;48.274;12.214;2022-09-09T11:05:29;3.67;;;2.75;;
19800;SDS011;10060;48.274;12.214;2022-09-09T11:08:34;4.70;;;2.83;;
19800;SDS011;10060;48.274;12.214;2022-09-09T11:11:39;4.03;;;2.75;;
19800;SDS011;10060;48.274;12.214;2022-09-09T11:14:45;4.95;;;2.30;;
19800;SDS011;10060;48.274;12.214;2022-09-09T11:17:53;4.03;;;1.98;;
19800;SDS011;10060;48.274;12.214;2022-09-09T11:21:02;2.72;;;1.88;;
19800;SDS011;10060;48.274;12.214;2022-09-09T11:24:09;5.93;;;2.58;;
19800;SDS011;10060;48.274;12.214;2022-09-09T11:27:14;5.55;;;2.72;;
19800;SDS011;10060;48.274;12.214;2022-09-09T11:30:19;3.25;;;2.00;;
19800;SDS011;10060;48.274;12.214;2022-09-09T11:36:51;2.90;;;2.00;;
19800;SDS011;10060;48.274;12.214;2022-09-09T11:40:00;5.40;;;2.22;;
19800;SDS011;10060;48.274;12.214;2022-09-09T11:43:10;2.95;;;2.50;;
19800;SDS011;10060;48.274;12.214;2022-09-09T11:46:15;2.90;;;2.28;;
19800;SDS011;10060;48.274;12.214;2022-09-09T11:49:25;4.88;;;3.05;;
19800;SDS011;10060;48.274;12.214;2022-09-09T11:52:35;4.43;;;2.10;;
19800;SDS011;10060;48.274;12.214;2022-09-09T11:55:37;4.18;;;2.30;;
19800;SDS011;10060;48.274;12.214;2022-09-09T11:58:43;5.10;;;2.40;;
19800;SDS011;10060;48.274;12.214;2022-09-09T12:01:49;2.45;;;2.22;;
19800;SDS011;10060;48.274;12.214;2022-09-09T12:04:55;5.78;;;2.28;;
19800;SDS011;10060;48.274;12.214;2022-09-09T12:08:00;2.97;;;2.65;;
19800;SDS011;10060;48.274;12.214;2022-09-09T12:11:04;3.15;;;2.40;;
19800;SDS011;10060;48.274;12.214;2022-09-09T12:14:18;6.15;;;2.50;;
19800;SDS011;10060;48.274;12.214;2022-09-09T12:17:23;4.15;;;2.25;;
19800;SDS011;10060;48.274;12.214;2022-09-09T12:20:26;2.35;;;2.13;;
19800;SDS011;10060;48.274;12.214;2022-09-09T12:23:35;2.25;;;2.05;;
19800;SDS011;10060;48.274;12.214;2022-09-09T12:26:40;2.83;;;2.20;;
19800;SDS011;10060;48.274;12.214;2022-09-09T12:29:45;2.47;;;1.90;;
19800;SDS011;10060;48.274;12.214;2022-09-09T12:32:59;4.50;;;1.70;;
19800;SDS011;10060;48.274;12.214;2022-09-09T12:36:03;3.40;;;1.60;;
19800;SDS011;10060;48.274;12.214;2022-09-09T12:39:10;3.25;;;1.70;;
19800;SDS011;10060;48.274;12.214;2022-09-09T12:42:15;2.95;;;1.70;;
19800;SDS011;10060;48.274;12.214;2022-09-09T12:45:18;4.00;;;1.20;;
19800;SDS011;10060;48.274;12.214;2022-09-09T12:48:22;2.22;;;1.17;;
19800;SDS011;10060;48.274;12.214;2022-09-09T12:51:27;2.85;;;1.30;;
19800;SDS011;10060;48.274;12.214;2022-09-09T12:54:29;2.92;;;1.40;;
19800;SDS011;10060;48.274;12.214;2022-09-09T12:57:34;2.50;;;1.10;;
19800;SDS011;10060;48.274;12.214;2022-09-09T13:00:37;2.13;;;1.20;;
19800;SDS011;10060;48.274;12.214;2022-09-09T13:03:42;2.60;;;1.50;;
19800;SDS011;10060;48.274;12.214;2022-09-09T13:06:47;2.08;;;1.00;;
19800;SDS011;10060;48.274;12.214;2022-09-09T13:09:49;2.20;;;1.25;;
19800;SDS011;10060;48.274;12.214;2022-09-09T13:12:51;1.20;;;1.10;;
19800;SDS011;10060;48.274;12.214;2022-09-09T13:15:54;1.77;;;1.13;;
19800;SDS011;10060;48.274;12.214;2022-09-09T13:18:59;1.85;;;1.20;;
19800;SDS011;10060;48.274;12.214;2022-09-09T13:22:10;2.10;;;1.10;;
19800;SDS011;10060;48.274;12.214;2022-09-09T13:25:20;1.27;;;1.00;;
19800;SDS011;10060;48.274;12.214;2022-09-09T13:28:26;1.95;;;1.25;;
19800;SDS011;10060;48.274;12.214;2022-09-09T13:31:29;2.35;;;1.20;;
19800;SDS011;10060;48.274;12.214;2022-09-09T13:34:34;1.67;;;1.13;;
19800;SDS011;10060;48.274;12.214;2022-09-09T13:37:37;1.90;;;0.93;;
19800;SDS011;10060;48.274;12.214;2022-09-09T13:40:51;2.75;;;1.17;;
19800;SDS011;10060;48.274;12.214;2022-09-09T13:43:54;2.35;;;1.13;;
19800;SDS011;10060;48.274;12.214;2022-09-09T13:47:02;1.70;;;0.80;;
19800;SDS011;10060;48.274;12.214;2022-09-09T13:50:19;3.55;;;1.00;;
19800;SDS011;10060;48.274;12.214;2022-09-09T13:53:22;2.40;;;1.02;;
19800;SDS011;10060;48.274;12.214;2022-09-09T13:56:24;2.58;;;1.00;;
19800;SDS011;10060;48.274;12.214;2022-09-09T13:59:27;1.20;;;0.80;;
19800;SDS011;10060;48.274;12.214;2022-09-09T14:02:29;2.42;;;1.20;;
19800;SDS011;10060;48.274;12.214;2022-09-09T14:05:33;1.30;;;0.90;;
19800;SDS011;10060;48.274;12.214;2022-09-09T14:08:35;1.60;;;0.90;;
19800;SDS011;10060;48.274;12.214;2022-09-09T14:11:38;0.80;;;0.80;;
19800;SDS011;10060;48.274;12.214;2022-09-09T14:14:41;2.83;;;0.93;;
19800;SDS011;10060;48.274;12.214;2022-09-09T14:17:43;0.60;;;0.60;;
19800;SDS011;10060;48.274;12.214;2022-09-09T14:20:47;1.77;;;1.15;;
19800;SDS011;10060;48.274;12.214;2022-09-09T14:23:50;1.20;;;0.90;;
19800;SDS011;10060;48.274;12.214;2022-09-09T14:26:52;1.27;;;0.88;;
19800;SDS011;10060;48.274;12.214;2022-09-09T14:29:54;0.95;;;0.80;;
19800;SDS011;10060;48.274;12.214;2022-09-09T14:32:57;4.95;;;0.93;;
19800;SDS011;10060;48.274;12.214;2022-09-09T14:36:02;2.30;;;1.10;;
19800;SDS011;10060;48.274;12.214;2022-09-09T14:39:05;1.65;;;0.93;;
19800;SDS011;10060;48.274;12.214;2022-09-09T14:42:07;1.00;;;0.90;;
19800;SDS011;10060;48.274;12.214;2022-09-09T14:45:11;1.95;;;1.02;;
19800;SDS011;10060;48.274;12.214;2022-09-09T14:48:13;1.17;;;1.08;;
19800;SDS011;10060;48.274;12.214;2022-09-09T14:51:17;1.73;;;0.80;;
19800;SDS011;10060;48.274;12.214;2022-09-09T14:54:20;1.40;;;0.80;;
19800;SDS011;10060;48.274;12.214;2022-09-09T14:57:23;1.33;;;0.95;;
19800;SDS011;10060;48.274;12.214;2022-09-09T15:00:25;4.13;;;1.58;;
19800;SDS011;10060;48.274;12.214;2022-09-09T15:03:27;1.15;;;0.85;;
19800;SDS011;10060;48.274;12.214;2022-09-09T15:06:31;1.10;;;1.00;;
19800;SDS011;10060;48.274;12.214;2022-09-09T15:09:34;2.15;;;1.40;;
19800;SDS011;10060;48.274;12.214;2022-09-09T15:12:37;1.83;;;1.00;;
19800;SDS011;10060;48.274;12.214;2022-09-09T15:15:39;1.58;;;1.33;;
19800;SDS011;10060;48.274;12.214;2022-09-09T15:18:42;1.70;;;1.08;;
19800;SDS011;10060;48.274;12.214;2022-09-09T15:21:46;3.92;;;1.05;;
19800;SDS011;10060;48.274;12.214;2022-09-09T15:24:48;1.30;;;1.10;;
19800;SDS011;10060;48.274;12.214;2022-09-09T15:27:51;1.45;;;1.10;;
19800;SDS011;10060;48.274;12.214;2022-09-09T15:30:53;3.15;;;1.10;;
19800;SDS011;10060;48.274;12.214;2022-09-09T15:33:57;1.33;;;1.23;;
19800;SDS011;10060;48.274;12.214;2022-09-09T15:37:02;1.60;;;1.20;;
19800;SDS011;10060;48.274;12.214;2022-09-09T15:40:06;1.98;;;1.20;;
19800;SDS011;10060;48.274;12.214;2022-09-09T15:43:09;2.10;;;1.55;;
19800;SDS011;10060;48.274;12.214;2022-09-09T15:46:21;2.13;;;1.20;;
19800;SDS011;10060;48.274;12.214;2022-09-09T15:49:26;4.15;;;1.30;;
19800;SDS011;10060;48.274;12.214;2022-09-09T15:52:29;1.58;;;1.00;;
19800;SDS011;10060;48.274;12.214;2022-09-09T15:55:32;1.63;;;1.00;;
19800;SDS011;10060;48.274;12.214;2022-09-09T15:58:34;2.45;;;1.00;;
19800;SDS011;10060;48.274;12.214;2022-09-09T16:01:37;1.30;;;1.10;;
19800;SDS011;10060;48.274;12.214;2022-09-09T16:04:39;2.15;;;1.10;;
19800;SDS011;10060;48.274;12.214;2022-09-09T16:07:43;2.00;;;1.00;;
19800;SDS011;10060;48.274;12.214;2022-09-09T16:10:46;2.03;;;1.20;;
19800;SDS011;10060;48.274;12.214;2022-09-09T16:13:48;0.88;;;0.80;;
19800;SDS011;10060;48.274;12.214;2022-09-09T16:16:51;1.17;;;1.00;;
19800;SDS011;10060;48.274;12.214;2022-09-09T16:19:53;1.27;;;1.02;;
19800;SDS011;10060;48.274;12.214;2022-09-09T16:22:58;2.08;;;1.05;;
19800;SDS011;10060;48.274;12.214;2022-09-09T16:26:01;2.35;;;1.15;;
19800;SDS011;10060;48.274;12.214;2022-09-09T16:29:04;1.38;;;1.00;;
19800;SDS011;10060;48.274;12.214;2022-09-09T16:32:06;1.65;;;0.90;;
19800;SDS011;10060;48.274;12.214;2022-09-09T16:35:10;1.23;;;1.00;;
19800;SDS011;10060;48.274;12.214;2022-09-09T16:38:13;1.20;;;1.10;;
19800;SDS011;10060;48.274;12.214;2022-09-09T16:41:16;1.23;;;1.10;;
19800;SDS011;10060;48.274;12.214;2022-09-09T16:44:20;1.98;;;1.10;;
19800;SDS011;10060;48.274;12.214;2022-09-09T16:47:22;4.10;;;1.98;;
19800;SDS011;10060;48.274;12.214;2022-09-09T16:50:25;1.45;;;1.00;;
19800;SDS011;10060;48.274;12.214;2022-09-09T16:53:28;1.48;;;1.13;;
19800;SDS011;10060;48.274;12.214;2022-09-09T16:56:31;1.58;;;0.93;;
19800;SDS011;10060;48.274;12.214;2022-09-09T16:59:34;2.15;;;1.10;;
19800;SDS011;10060;48.274;12.214;2022-09-09T17:02:36;1.35;;;1.17;;
19800;SDS011;10060;48.274;12.214;2022-09-09T17:05:39;1.70;;;1.05;;
19800;SDS011;10060;48.274;12.214;2022-09-09T17:08:43;1.40;;;1.20;;
19800;SDS011;10060;48.274;12.214;2022-09-09T17:11:45;2.17;;;1.30;;
19800;SDS011;10060;48.274;12.214;2022-09-09T17:14:47;1.95;;;1.17;;
19800;SDS011;10060;48.274;12.214;2022-09-09T17:17:50;2.17;;;1.30;;
19800;SDS011;10060;48.274;12.214;2022-09-09T17:20:54;1.67;;;1.05;;
19800;SDS011;10060;48.274;12.214;2022-09-09T17:23:58;1.20;;;1.10;;
19800;SDS011;10060;48.274;12.214;2022-09-09T17:27:00;3.42;;;1.10;;
19800;SDS011;10060;48.274;12.214;2022-09-09T17:30:02;2.00;;;1.15;;
19800;SDS011;10060;48.274;12.214;2022-09-09T17:33:05;1.40;;;1.27;;
19800;SDS011;10060;48.274;12.214;2022-09-09T17:36:08;1.95;;;1.27;;
19800;SDS011;10060;48.274;12.214;2022-09-09T17:39:12;2.20;;;1.33;;
19800;SDS011;10060;48.274;12.214;2022-09-09T17:42:14;3.90;;;2.65;;
19800;SDS011;10060;48.274;12.214;2022-09-09T17:45:16;5.28;;;3.13;;
19800;SDS011;10060;48.274;12.214;2022-09-09T17:48:19;3.50;;;1.90;;
19800;SDS011;10060;48.274;12.214;2022-09-09T17:51:22;3.92;;;2.47;;
19800;SDS011;10060;48.274;12.214;2022-09-09T17:54:27;2.83;;;1.45;;
19800;SDS011;10060;48.274;12.214;2022-09-09T17:57:29;2.25;;;1.60;;
19800;SDS011;10060;48.274;12.214;2022-09-09T18:00:31;2.08;;;1.50;;
19800;SDS011;10060;48.274;12.214;2022-09-09T18:03:36;2.88;;;1.20;;
19800;SDS011;10060;48.274;12.214;2022-09-09T18:06:40;1.88;;;1.08;;
19800;SDS011;10060;48.274;12.214;2022-09-09T18:09:43;1.98;;;1.25;;
19800;SDS011;10060;48.274;12.214;2022-09-09T18:12:46;3.10;;;1.20;;
19800;SDS011;10060;48.274;12.214;2022-09-09T18:15:48;2.03;;;1.30;;
19800;SDS011;10060;48.274;12.214;2022-09-09T18:18:50;2.35;;;1.50;;